Time;durP1;ratioP1;P1;durP2;ratioP2;P2;SDS_P1;SDS_P2;PMS_P1;PMS_P2;Temp;Humidity;BMP_temperature;BMP_pressure;BME280_temperature;BME280_humidity;BME280_pressure;Samples;Min_cycle;Max_cycle;Signal;HPM_P1;HPM_P2
2023/12/25 00:02:20;;;;;;;;;;;;;;;10.79;100.00;99921.00;4987385;28;20429;-78
2023/12/25 00:04:48;;;;;;;;;;;;;;;10.74;100.00;99918.16;4987491;28;20432;-77
2023/12/25 00:07:14;;;;;;;;;;;;;;;10.75;100.00;99909.88;4990952;28;20064;-78
2023/12/25 00:09:39;;;;;;;;;;;;;;;10.80;100.00;99905.66;4975891;28;19981;-77
2023/12/25 00:12:04;;;;;;;;;;;;;;;10.77;100.00;99923.91;4977306;28;19930;-78
2023/12/25 00:14:30;;;;;;;;;;;;;;;10.81;100.00;99923.47;4982187;28;19976;-78
2023/12/25 00:16:55;;;;;;;;;;;;;;;10.87;100.00;99933.38;4978876;28;20429;-77
2023/12/25 00:19:20;;;;;;;;;;;;;;;10.82;100.00;99930.50;4980784;28;19965;-78
2023/12/25 00:21:54;;;;;;;;;;;;;;;10.84;100.00;99928.41;5060254;23;19913;-78
2023/12/25 00:24:19;;;;;;;;;;;;;;;10.82;100.00;99920.56;4991015;28;19929;-77
2023/12/25 00:26:57;;;;;;;;;;;;;;;10.71;100.00;99913.19;4991742;28;19925;-78
2023/12/25 00:29:22;;;;;;;;;;;;;;;10.68;100.00;99909.09;4985433;28;19922;-77
2023/12/25 00:32:09;;;;;;;;;;;;;;;10.69;100.00;99918.81;4994266;28;20330;-78
2023/12/25 00:34:34;;;;;;;;;;;;;;;10.64;100.00;99915.16;4987534;28;19922;-78
2023/12/25 00:42:38;;;;;;;;;;;;;;;10.64;100.00;99939.38;5127675;23;19926;-78
2023/12/25 00:45:03;;;;;;;;;;;;;;;10.59;100.00;99926.59;4995660;28;19906;-78
2023/12/25 00:47:28;;;;;;;;;;;;;;;10.57;100.00;99931.34;4984145;28;19922;-77
2023/12/25 00:49:53;;;;;;;;;;;;;;;10.55;100.00;99919.97;4979011;28;20370;-77
2023/12/25 00:52:19;;;;;;;;;;;;;;;10.52;100.00;99915.03;4989121;28;20422;-80
2023/12/25 00:54:45;;;;;;;;;;;;;;;10.59;100.00;99900.47;4984712;28;19922;-81
2023/12/25 00:57:10;;;;;;;;;;;;;;;10.59;100.00;99923.88;4980880;28;20009;-80
2023/12/25 00:59:35;;;;;;;;;;;;;;;10.62;100.00;99918.03;4979828;28;19919;-79
2023/12/25 01:02:00;;;;;;;;;;;;;;;10.63;100.00;99943.91;4988723;28;19921;-79
2023/12/25 01:04:25;;;;;;;;;;;;;;;10.65;100.00;99944.53;4993732;28;20005;-79
2023/12/25 01:06:53;;;;;;;;;;;;;;;10.71;100.00;99954.41;4987057;28;19922;-79
2023/12/25 01:12:00;;;;;;;;;;;;;;;10.68;100.00;99960.25;5533937;23;19925;-79
2023/12/25 01:27:25;;;;;;;;;;;;;;;9.77;100.00;100006.06;4978810;28;20012;-79
2023/12/25 01:29:57;;;;;;;;;;;;;;;9.36;100.00;99985.72;4988451;28;20012;-78
2023/12/25 01:32:22;;;;;;;;;;;;;;;8.97;100.00;99985.56;4985111;28;19918;-78
2023/12/25 01:34:56;;;;;;;;;;;;;;;8.84;100.00;99997.13;4984475;28;19981;-78
2023/12/25 01:37:22;;;;;;;;;;;;;;;8.84;100.00;99990.94;4989389;28;20009;-79
2023/12/25 01:39:47;;;;;;;;;;;;;;;8.82;100.00;99993.84;4984125;28;19987;-79
2023/12/25 01:42:12;;;;;;;;;;;;;;;8.76;100.00;99992.00;4976719;28;19926;-79
2023/12/25 01:44:37;;;;;;;;;;;;;;;8.67;100.00;100007.47;4983330;28;19922;-79
2023/12/25 01:47:03;;;;;;;;;;;;;;;8.57;100.00;99975.66;4988752;28;19925;-78
2023/12/25 01:49:28;;;;;;;;;;;;;;;8.57;100.00;99989.09;4982328;28;19926;-79
2023/12/25 01:51:53;;;;;;;;;;;;;;;8.61;100.00;99982.28;4997880;28;19957;-79
2023/12/25 01:54:18;;;;;;;;;;;;;;;8.76;100.00;99992.00;5007271;28;19910;-79
2023/12/25 01:56:43;;;;;;;;;;;;;;;8.94;100.00;99986.81;4998372;28;20433;-80
2023/12/25 01:59:09;;;;;;;;;;;;;;;9.10;100.00;99990.91;4983197;28;20374;-79
2023/12/25 02:01:34;;;;;;;;;;;;;;;9.14;100.00;100002.09;4992121;28;20381;-79
2023/12/25 02:03:59;;;;;;;;;;;;;;;9.22;100.00;99998.34;4976747;28;19930;-79
2023/12/25 02:06:24;;;;;;;;;;;;;;;9.29;100.00;100003.72;4983437;28;19928;-79
2023/12/25 02:08:50;;;;;;;;;;;;;;;9.44;100.00;100004.31;4986677;28;19996;-79
2023/12/25 02:11:15;;;;;;;;;;;;;;;9.46;100.00;100004.06;4984840;28;19926;-79
2023/12/25 02:13:40;;;;;;;;;;;;;;;9.46;100.00;100004.06;4990579;28;19922;-79
2023/12/25 02:16:06;;;;;;;;;;;;;;;9.53;100.00;100000.34;4983978;28;19922;-79
2023/12/25 02:18:37;;;;;;;;;;;;;;;9.56;100.00;100005.28;4985390;28;19934;-79
2023/12/25 02:31:23;;;;;;;;;;;;;;;9.70;100.00;100006.09;5286551;23;19949;-77
2023/12/25 02:33:48;;;;;;;;;;;;;;;9.66;100.00;99987.91;4980632;28;20366;-80
2023/12/25 02:36:17;;;;;;;;;;;;;;;9.64;100.00;99995.34;4981218;28;19941;-77
2023/12/25 02:38:57;;;;;;;;;;;;;;;9.53;100.00;99999.53;4977716;28;19993;-80
2023/12/25 02:41:22;;;;;;;;;;;;;;;9.37;100.00;100006.16;4981900;28;19921;-78
2023/12/25 02:44:00;;;;;;;;;;;;;;;9.25;100.00;100014.06;4993759;28;20290;-79
2023/12/25 02:46:25;;;;;;;;;;;;;;;9.01;100.00;100018.19;4986398;28;19945;-77
2023/12/25 02:48:56;;;;;;;;;;;;;;;8.86;100.00;100016.53;4985788;28;20313;-79
2023/12/25 02:51:22;;;;;;;;;;;;;;;8.73;100.00;100016.53;4997938;28;20396;-80
2023/12/25 02:53:47;;;;;;;;;;;;;;;8.61;100.00;100033.25;5000647;28;19921;-80
2023/12/25 02:56:12;;;;;;;;;;;;;;;8.52;100.00;100020.25;4991062;28;19928;-80
2023/12/25 02:58:37;;;;;;;;;;;;;;;8.44;100.00;100026.59;4992671;28;19929;-78
2023/12/25 03:01:03;;;;;;;;;;;;;;;8.38;100.00;100022.88;4993853;28;19930;-78
2023/12/25 03:03:28;;;;;;;;;;;;;;;8.30;100.00;100029.22;4983229;28;19925;-79
2023/12/25 03:05:53;;;;;;;;;;;;;;;8.28;100.00;100017.91;4983622;28;19922;-80
2023/12/25 03:08:18;;;;;;;;;;;;;;;8.28;100.00;100003.66;4982648;28;20008;-80
2023/12/25 03:10:44;;;;;;;;;;;;;;;8.32;100.00;100015.63;4977820;28;20017;-78
2023/12/25 03:13:09;;;;;;;;;;;;;;;8.38;100.00;100008.63;4974420;28;19977;-79
2023/12/25 03:15:34;;;;;;;;;;;;;;;8.39;100.00;100004.91;4991181;28;20425;-80
2023/12/25 03:17:59;;;;;;;;;;;;;;;8.39;100.00;100000.38;4993388;28;20377;-80
2023/12/25 03:20:25;;;;;;;;;;;;;;;8.42;100.00;100012.56;4980011;28;19922;-80
2023/12/25 03:22:50;;;;;;;;;;;;;;;8.42;100.00;100009.88;4974814;28;19918;-80
2023/12/25 03:25:15;;;;;;;;;;;;;;;8.44;100.00;100015.88;4979509;28;19922;-80
2023/12/25 03:27:41;;;;;;;;;;;;;;;8.47;100.00;100023.50;4992173;28;19918;-80
2023/12/25 03:30:06;;;;;;;;;;;;;;;8.54;100.00;100029.72;4993898;28;20440;-80
2023/12/25 03:32:33;;;;;;;;;;;;;;;8.58;100.00;100025.63;4992478;28;20410;-80
2023/12/25 03:34:59;;;;;;;;;;;;;;;8.69;100.00;100031.41;4987142;28;19922;-79
2023/12/25 03:37:24;;;;;;;;;;;;;;;8.85;100.00;100033.69;4980569;28;19977;-80
2023/12/25 03:39:49;;;;;;;;;;;;;;;8.93;100.00;100033.47;4991365;28;19926;-80
2023/12/25 03:42:14;;;;;;;;;;;;;;;9.04;100.00;100028.50;4992169;28;19922;-78
2023/12/25 03:44:42;;;;;;;;;;;;;;;9.13;100.00;100042.56;4984857;28;19928;-78
2023/12/25 03:47:08;;;;;;;;;;;;;;;9.30;100.00;100034.91;4992308;28;19929;-77
2023/12/25 03:49:33;;;;;;;;;;;;;;;9.44;100.00;100031.16;4986327;28;19922;-77
2023/12/25 03:51:58;;;;;;;;;;;;;;;9.54;100.00;100044.97;4974843;28;20267;-78
2023/12/25 03:54:24;;;;;;;;;;;;;;;9.55;100.00;100041.25;4976332;28;19984;-78
2023/12/25 03:56:49;;;;;;;;;;;;;;;9.66;100.00;100033.59;4987807;28;19922;-78
2023/12/25 03:59:14;;;;;;;;;;;;;;;9.68;100.00;100045.78;4983218;28;20011;-77
2023/12/25 04:01:39;;;;;;;;;;;;;;;9.73;100.00;100042.44;4973378;28;19922;-78
2023/12/25 04:04:05;;;;;;;;;;;;;;;9.72;100.00;100043.47;4974990;28;19922;-77
2023/12/25 04:06:30;;;;;;;;;;;;;;;9.78;100.00;100050.72;4978865;28;20086;-78
2023/12/25 04:08:55;;;;;;;;;;;;;;;9.89;100.00;100059.16;4985501;28;20429;-77
2023/12/25 04:11:21;;;;;;;;;;;;;;;9.93;100.00;100055.84;4973327;28;20338;-77
2023/12/25 04:13:46;;;;;;;;;;;;;;;9.93;100.00;100058.53;4992879;28;20444;-77
2023/12/25 04:16:21;;;;;;;;;;;;;;;9.94;100.00;100064.72;4976737;28;19921;-78
2023/12/25 04:18:46;;;;;;;;;;;;;;;9.93;100.00;100063.91;4986190;28;19962;-78
2023/12/25 04:21:27;;;;;;;;;;;;;;;9.94;100.00;100049.44;4980272;28;19930;-77
2023/12/25 04:23:53;;;;;;;;;;;;;;;9.97;100.00;100065.13;4985640;28;19925;-78
2023/12/25 04:26:19;;;;;;;;;;;;;;;9.95;100.00;100051.09;4992408;28;19922;-78
2023/12/25 04:28:44;;;;;;;;;;;;;;;9.98;100.00;100055.19;4982317;28;19953;-78
2023/12/25 04:31:09;;;;;;;;;;;;;;;10.01;100.00;100068.22;4985886;28;20008;-77
2023/12/25 04:33:34;;;;;;;;;;;;;;;10.01;100.00;100060.16;5392210;23;19918;-78
2023/12/25 04:35:59;;;;;;;;;;;;;;;9.99;100.00;100056.84;4980939;28;19937;-77
2023/12/25 04:38:25;;;;;;;;;;;;;;;10.01;100.00;100054.78;4990405;28;19941;-79
2023/12/25 04:40:53;;;;;;;;;;;;;;;10.00;100.00;100048.56;4988603;28;19922;-78
2023/12/25 04:43:18;;;;;;;;;;;;;;;10.04;100.00;100054.34;5323233;23;20439;-77
2023/12/25 04:45:49;;;;;;;;;;;;;;;10.03;100.00;100028.50;4989647;28;20027;-77
2023/12/25 04:48:15;;;;;;;;;;;;;;;9.97;100.00;100040.09;4996328;28;19948;-79
2023/12/25 04:50:40;;;;;;;;;;;;;;;9.98;100.00;100039.06;4995715;28;20285;-79
2023/12/25 04:53:05;;;;;;;;;;;;;;;9.99;100.00;100041.53;4977714;28;19922;-79
2023/12/25 04:55:31;;;;;;;;;;;;;;;10.00;100.00;100045.06;4984620;28;19922;-79
2023/12/25 04:57:56;;;;;;;;;;;;;;;9.97;100.00;100034.72;4986020;28;19957;-79
2023/12/25 05:00:24;;;;;;;;;;;;;;;9.89;100.00;100034.94;4996942;28;19976;-79
2023/12/25 05:02:49;;;;;;;;;;;;;;;9.92;100.00;100056.03;4993385;28;19922;-78
2023/12/25 05:05:15;;;;;;;;;;;;;;;9.92;100.00;100058.72;4985113;28;19948;-78
2023/12/25 05:07:40;;;;;;;;;;;;;;;9.93;100.00;100047.78;4984373;28;19926;-79
2023/12/25 05:10:05;;;;;;;;;;;;;;;9.92;100.00;100042.59;4992213;28;19926;-79
2023/12/25 05:12:31;;;;;;;;;;;;;;;9.89;100.00;100049.22;4988094;28;19929;-78
2023/12/25 05:14:56;;;;;;;;;;;;;;;9.89;100.00;100046.53;4994765;28;19932;-78
2023/12/25 05:17:21;;;;;;;;;;;;;;;9.91;100.00;100051.69;5006745;28;19921;-78
2023/12/25 05:19:48;;;;;;;;;;;;;;;9.90;100.00;100058.09;5004365;28;19997;-79
2023/12/25 05:22:14;;;;;;;;;;;;;;;9.93;100.00;100057.69;4992569;28;20272;-79
2023/12/25 05:24:40;;;;;;;;;;;;;;;9.95;100.00;100050.25;5004612;28;19928;-79
2023/12/25 05:27:05;;;;;;;;;;;;;;;9.95;100.00;100052.94;4998052;28;19969;-79
2023/12/25 05:29:30;;;;;;;;;;;;;;;9.94;100.00;100064.72;4997367;28;20362;-79
2023/12/25 05:31:58;;;;;;;;;;;;;;;9.92;100.00;100050.66;4989031;28;20381;-79
2023/12/25 05:34:23;;;;;;;;;;;;;;;9.89;100.00;100046.53;4986088;28;19922;-79
2023/12/25 05:36:49;;;;;;;;;;;;;;;9.92;100.00;100045.28;4999271;23;19977;-79
2023/12/25 05:39:14;;;;;;;;;;;;;;;9.92;100.00;100045.28;4994896;28;19918;-78
2023/12/25 05:41:39;;;;;;;;;;;;;;;9.94;100.00;100053.97;4991234;28;19917;-79
2023/12/25 05:44:06;;;;;;;;;;;;;;;9.92;100.00;100058.72;4993692;28;19922;-79
2023/12/25 05:46:31;;;;;;;;;;;;;;;9.89;100.00;100045.72;4983106;28;19922;-79
2023/12/25 05:48:56;;;;;;;;;;;;;;;9.96;100.00;100046.50;4992913;28;19949;-78
2023/12/25 05:51:22;;;;;;;;;;;;;;;9.93;100.00;100058.53;4992922;28;19918;-78
2023/12/25 05:53:47;;;;;;;;;;;;;;;9.92;100.00;100061.41;4982712;28;20287;-77
2023/12/25 05:56:15;;;;;;;;;;;;;;;9.94;100.00;100064.72;4986745;28;20286;-78
2023/12/25 05:58:42;;;;;;;;;;;;;;;9.95;100.00;100061.84;5160344;23;19926;-79
2023/12/25 06:01:08;;;;;;;;;;;;;;;9.92;100.00;100069.47;4985004;28;20301;-78
2023/12/25 06:03:40;;;;;;;;;;;;;;;9.86;100.00;100071.16;4975346;28;20016;-85
2023/12/25 06:06:05;;;;;;;;;;;;;;;9.76;100.00;100066.22;4979674;28;20280;-78
2023/12/25 06:08:30;;;;;;;;;;;;;;;9.70;100.00;100069.78;4984366;28;20048;-79
2023/12/25 06:10:56;;;;;;;;;;;;;;;9.65;100.00;100072.25;4987300;28;19922;-78
2023/12/25 06:13:21;;;;;;;;;;;;;;;9.55;100.00;100086.94;4992440;28;19930;-78
2023/12/25 06:15:48;;;;;;;;;;;;;;;9.46;100.00;100069.41;4992735;28;19926;-77
2023/12/25 06:18:14;;;;;;;;;;;;;;;9.39;100.00;100073.94;4999489;28;19945;-78
2023/12/25 06:20:39;;;;;;;;;;;;;;;9.30;100.00;100065.25;4997611;28;19918;-78
2023/12/25 06:23:04;;;;;;;;;;;;;;;9.21;100.00;100079.97;4996734;28;19988;-78
2023/12/25 06:25:29;;;;;;;;;;;;;;;9.14;100.00;100082.66;4978003;28;20015;-78
2023/12/25 06:27:54;;;;;;;;;;;;;;;9.11;100.00;100066.94;4977717;28;20339;-78
2023/12/25 06:30:20;;;;;;;;;;;;;;;9.06;100.00;100090.88;4979586;28;19934;-78
2023/12/25 06:32:54;;;;;;;;;;;;;;;9.02;100.00;100089.63;4994907;28;20057;-77
2023/12/25 06:35:19;;;;;;;;;;;;;;;8.97;100.00;100098.31;4994331;28;20409;-77
2023/12/25 06:37:44;;;;;;;;;;;;;;;8.95;100.00;100089.63;4993380;28;19926;-78
2023/12/25 06:40:10;;;;;;;;;;;;;;;8.94;100.00;100088.81;4993253;28;20000;-76
2023/12/25 06:42:35;;;;;;;;;;;;;;;8.95;100.00;100093.16;4990566;28;19929;-76
2023/12/25 06:45:00;;;;;;;;;;;;;;;8.93;100.00;100087.16;4984669;28;19922;-77
2023/12/25 06:47:28;;;;;;;;;;;;;;;8.97;100.00;100092.94;4979296;28;20017;-78
2023/12/25 06:49:54;;;;;;;;;;;;;;;8.97;100.00;100105.56;4999072;28;19972;-75
2023/12/25 06:52:19;;;;;;;;;;;;;;;8.99;100.00;100103.50;4979308;28;19918;-77
2023/12/25 06:54:44;;;;;;;;;;;;;;;9.06;100.00;100104.31;4984610;28;19926;-77
2023/12/25 06:57:11;;;;;;;;;;;;;;;9.09;100.00;100101.22;4975365;28;19925;-76
2023/12/25 06:59:36;;;;;;;;;;;;;;;9.13;100.00;100107.84;4981077;28;20009;-82
2023/12/25 07:02:01;;;;;;;;;;;;;;;9.15;100.00;100113.84;4980730;28;19969;-78
2023/12/25 07:04:27;;;;;;;;;;;;;;;9.15;100.00;100111.16;4990207;28;19921;-80
2023/12/25 07:06:52;;;;;;;;;;;;;;;9.13;100.00;100107.00;4977771;28;19925;-78
2023/12/25 07:09:17;;;;;;;;;;;;;;;9.11;100.00;100107.22;4981724;28;20121;-79
2023/12/25 07:11:45;;;;;;;;;;;;;;;9.09;100.00;100104.72;4974967;28;20160;-81
2023/12/25 07:14:10;;;;;;;;;;;;;;;9.10;100.00;100101.00;4974765;28;19958;-79
2023/12/25 07:16:35;;;;;;;;;;;;;;;9.07;100.00;100097.91;4975506;28;19966;-79
2023/12/25 07:19:00;;;;;;;;;;;;;;;9.07;100.00;100100.59;4985220;28;19929;-80
2023/12/25 07:21:26;;;;;;;;;;;;;;;9.10;100.00;100097.50;4977346;28;19972;-80
2023/12/25 07:23:52;;;;;;;;;;;;;;;9.08;100.00;100105.78;4992947;28;19918;-81
2023/12/25 07:26:17;;;;;;;;;;;;;;;9.10;100.00;100113.63;4993817;28;19987;-79
2023/12/25 07:28:43;;;;;;;;;;;;;;;9.06;100.00;100120.41;4975766;28;19973;-82
2023/12/25 07:31:08;;;;;;;;;;;;;;;9.11;100.00;100120.66;4988786;28;19976;-82
2023/12/25 07:33:34;;;;;;;;;;;;;;;9.05;100.00;100127.66;4992451;28;19977;-80
2023/12/25 07:36:00;;;;;;;;;;;;;;;9.11;100.00;100131.38;4994484;28;19956;-80
2023/12/25 07:38:37;;;;;;;;;;;;;;;9.10;100.00;100133.22;4990642;28;19949;-79
2023/12/25 07:41:24;;;;;;;;;;;;;;;9.05;100.00;100132.19;4993472;28;19922;-80
2023/12/25 07:43:49;;;;;;;;;;;;;;;9.05;100.00;100140.25;4994500;28;19917;-80
2023/12/25 07:46:15;;;;;;;;;;;;;;;9.05;100.00;100134.88;4993247;28;20009;-80
2023/12/25 07:48:40;;;;;;;;;;;;;;;9.04;100.00;100142.13;4993818;28;19917;-80
2023/12/25 07:51:11;;;;;;;;;;;;;;;9.03;100.00;100148.53;4993905;28;19918;-80
2023/12/25 07:53:37;;;;;;;;;;;;;;;9.00;100.00;100159.66;4993570;28;19925;-79
2023/12/25 07:56:14;;;;;;;;;;;;;;;8.98;100.00;100159.03;4993606;28;19919;-79
2023/12/25 07:58:40;;;;;;;;;;;;;;;9.00;100.00;100158.84;4993042;28;19926;-80
2023/12/25 08:01:09;;;;;;;;;;;;;;;8.97;100.00;100167.31;4973772;28;19930;-79
2023/12/25 08:03:35;;;;;;;;;;;;;;;8.98;100.00;100171.66;4974173;28;19922;-79
2023/12/25 08:06:02;;;;;;;;;;;;;;;8.93;100.00;100167.69;4973948;28;20718;-80
2023/12/25 08:08:32;;;;;;;;;;;;;;;8.91;100.00;100172.44;4973227;28;19918;-79
2023/12/25 08:10:59;;;;;;;;;;;;;;;8.86;100.00;100180.25;4983809;28;19922;-79
2023/12/25 08:13:25;;;;;;;;;;;;;;;8.80;100.00;100183.78;4993437;28;19918;-80
2023/12/25 08:15:50;;;;;;;;;;;;;;;8.78;100.00;100188.53;4994663;28;20016;-80
2023/12/25 08:18:15;;;;;;;;;;;;;;;8.79;100.00;100190.19;4996310;28;19961;-80
2023/12/25 08:20:42;;;;;;;;;;;;;;;8.77;100.00;100195.72;4993931;28;19925;-80
2023/12/25 08:23:08;;;;;;;;;;;;;;;8.82;100.00;100205.88;4993989;28;19921;-80
2023/12/25 08:25:33;;;;;;;;;;;;;;;8.78;100.00;100205.44;4992220;28;19924;-80
2023/12/25 08:28:01;;;;;;;;;;;;;;;8.77;100.00;100203.78;4974979;28;20005;-80
2023/12/25 08:30:29;;;;;;;;;;;;;;;8.75;100.00;100202.34;4975125;28;19918;-80
2023/12/25 08:32:54;;;;;;;;;;;;;;;8.80;100.00;100206.06;4974393;28;19922;-80
2023/12/25 08:35:19;;;;;;;;;;;;;;;8.83;100.00;100199.44;4997796;23;19929;-80
2023/12/25 08:37:45;;;;;;;;;;;;;;;8.84;100.00;100205.66;4990714;28;19926;-80
2023/12/25 08:40:10;;;;;;;;;;;;;;;8.87;100.00;100200.72;4993309;28;19918;-80
2023/12/25 08:42:36;;;;;;;;;;;;;;;8.87;100.00;100216.00;4993770;28;19980;-80
2023/12/25 08:45:02;;;;;;;;;;;;;;;8.91;100.00;100212.72;4992840;28;19949;-80
2023/12/25 08:47:27;;;;;;;;;;;;;;;8.88;100.00;100221.16;4993754;28;19922;-80
2023/12/25 08:49:52;;;;;;;;;;;;;;;8.89;100.00;100216.63;4994814;28;19924;-80
2023/12/25 08:52:17;;;;;;;;;;;;;;;8.90;100.00;100211.06;4993645;28;19928;-79
2023/12/25 08:54:43;;;;;;;;;;;;;;;8.93;100.00;100207.97;4994613;28;20012;-80
2023/12/25 08:57:08;;;;;;;;;;;;;;;8.93;100.00;100226.75;4997291;28;19973;-80
2023/12/25 08:59:36;;;;;;;;;;;;;;;8.99;100.00;100218.94;4995748;28;19922;-80
2023/12/25 09:02:01;;;;;;;;;;;;;;;8.98;100.00;100225.34;4993805;28;19983;-80
2023/12/25 09:04:26;;;;;;;;;;;;;;;9.01;100.00;100231.13;4995669;28;20017;-80
2023/12/25 09:06:52;;;;;;;;;;;;;;;9.01;100.00;100235.66;4992500;28;19922;-80
2023/12/25 09:09:17;;;;;;;;;;;;;;;9.05;100.00;100242.28;4980945;28;19918;-79
2023/12/25 09:11:43;;;;;;;;;;;;;;;9.07;100.00;100248.28;4984412;28;19925;-80
2023/12/25 09:14:08;;;;;;;;;;;;;;;9.09;100.00;100252.41;4983544;28;19919;-80
2023/12/25 09:16:41;;;;;;;;;;;;;;;9.08;100.00;100244.56;4982327;28;20363;-80
2023/12/25 09:19:06;;;;;;;;;;;;;;;9.15;100.00;100225.78;4979130;28;19921;-80
2023/12/25 09:21:40;;;;;;;;;;;;;;;9.09;100.00;100232.78;4977174;28;19932;-80
2023/12/25 09:24:05;;;;;;;;;;;;;;;8.99;100.00;100243.09;4975567;28;19922;-79
2023/12/25 09:26:35;;;;;;;;;;;;;;;9.02;100.00;100251.56;4978399;28;20270;-80
2023/12/25 09:29:02;;;;;;;;;;;;;;;9.03;100.00;100257.75;4978105;28;19949;-79
2023/12/25 09:31:27;;;;;;;;;;;;;;;8.97;100.00;100263.94;4976526;28;20378;-80
2023/12/25 09:34:01;;;;;;;;;;;;;;;8.94;100.00;100262.47;4976260;28;19972;-79
2023/12/25 09:36:26;;;;;;;;;;;;;;;8.99;100.00;100269.94;4976548;28;20378;-79
2023/12/25 09:38:51;;;;;;;;;;;;;;;8.94;100.00;100271.38;4996081;28;20056;-79
2023/12/25 09:41:16;;;;;;;;;;;;;;;8.96;100.00;100265.78;4998311;28;20289;-80
2023/12/25 09:43:43;;;;;;;;;;;;;;;9.13;100.00;100271.63;5001035;28;19918;-80
2023/12/25 09:46:09;;;;;;;;;;;;;;;9.21;100.00;100270.63;4998285;28;19918;-80
2023/12/25 09:48:35;;;;;;;;;;;;;;;9.21;100.00;100282.19;4996772;28;20002;-79
2023/12/25 09:51:01;;;;;;;;;;;;;;;9.23;100.00;100285.50;4995571;28;19918;-79
2023/12/25 09:53:29;;;;;;;;;;;;;;;9.35;100.00;100290.31;4995011;28;19928;-79
2023/12/25 09:55:54;;;;;;;;;;;;;;;9.33;100.00;100295.03;4995747;28;19922;-80
2023/12/25 09:58:20;;;;;;;;;;;;;;;9.36;100.00;100291.94;4995005;28;19924;-80
2023/12/25 10:00:45;;;;;;;;;;;;;;;9.27;100.00;100295.84;4993673;28;20012;-80
2023/12/25 10:03:10;;;;;;;;;;;;;;;9.27;100.00;100285.09;4994430;28;19968;-79
2023/12/25 10:05:36;;;;;;;;;;;;;;;9.51;100.00;100284.56;4994086;28;20349;-79
2023/12/25 10:08:01;;;;;;;;;;;;;;;9.52;100.00;100285.38;4977648;28;20370;-79
2023/12/25 10:10:27;;;;;;;;;;;;;;;9.45;100.00;100285.34;4977341;28;20396;-79
2023/12/25 10:12:56;;;;;;;;;;;;;;;9.66;100.00;100278.16;4982946;28;20041;-79
2023/12/25 10:15:22;;;;;;;;;;;;;;;9.55;100.00;100272.34;4982139;28;19926;-80
2023/12/25 10:17:48;;;;;;;;;;;;;;;9.52;100.00;100272.78;4979560;28;19958;-80
2023/12/25 10:20:17;;;;;;;;;;;;;;;9.68;100.00;100268.03;4976104;28;19929;-79
2023/12/25 10:22:42;;;;;;;;;;;;;;;9.58;100.00;100262.22;4975001;28;19918;-80
2023/12/25 10:25:09;;;;;;;;;;;;;;;9.54;100.00;100259.13;4975562;28;19992;-79
2023/12/25 10:27:34;;;;;;;;;;;;;;;9.60;100.00;100252.94;4975829;28;20065;-79
2023/12/25 10:30:00;;;;;;;;;;;;;;;9.70;100.00;100264.09;4975976;28;20390;-79
2023/12/25 10:32:25;;;;;;;;;;;;;;;9.61;100.00;100269.88;4975580;28;19918;-79
2023/12/25 10:34:51;;;;;;;;;;;;;;;9.53;100.00;100271.72;4976284;28;19992;-79
2023/12/25 10:37:16;;;;;;;;;;;;;;;9.43;100.00;100273.97;4974719;28;20013;-79
2023/12/25 10:39:41;;;;;;;;;;;;;;;9.44;100.00;100278.31;4976078;28;19918;-79
2023/12/25 10:42:07;;;;;;;;;;;;;;;9.64;100.00;100274.84;4979256;28;20009;-79
2023/12/25 10:44:32;;;;;;;;;;;;;;;9.50;100.00;100261.41;4988413;28;19918;-80
2023/12/25 10:50:10;;;;;;;;;;;;;;;9.45;100.00;100271.91;5004084;23;19925;-79
2023/12/25 10:52:35;;;;;;;;;;;;;;;9.54;100.00;100267.19;4992571;28;19922;-80
2023/12/25 10:55:00;;;;;;;;;;;;;;;9.44;100.00;100281.00;4994790;28;19972;-79
2023/12/25 10:57:31;;;;;;;;;;;;;;;9.64;100.00;100264.91;4994058;28;20004;-79
2023/12/25 10:59:57;;;;;;;;;;;;;;;9.60;100.00;100270.91;4992972;28;19928;-79
2023/12/25 11:02:35;;;;;;;;;;;;;;;9.64;100.00;100267.59;4974955;28;20127;-79
2023/12/25 11:05:01;;;;;;;;;;;;;;;9.47;100.00;100275.25;4974860;28;19922;-79
2023/12/25 11:07:26;;;;;;;;;;;;;;;9.55;100.00;100271.53;4974071;28;19997;-79
2023/12/25 11:10:04;;;;;;;;;;;;;;;9.70;100.00;100260.59;4973057;28;19918;-79
2023/12/25 11:12:34;;;;;;;;;;;;;;;9.56;100.00;100257.88;4972888;28;19918;-80
2023/12/25 11:15:00;;;;;;;;;;;;;;;9.51;100.00;100264.91;4976060;28;19928;-79
2023/12/25 11:17:27;;;;;;;;;;;;;;;9.42;100.00;100266.94;4993020;28;20016;-79
2023/12/25 11:20:12;;;;;;;;;;;;;;;9.47;100.00;100258.28;4994231;28;19958;-79
2023/12/25 11:22:40;;;;;;;;;;;;;;;9.38;100.00;100261.16;4992750;28;19918;-79
2023/12/25 11:25:16;;;;;;;;;;;;;;;9.30;100.00;100261.34;4994326;28;19918;-79
2023/12/25 11:27:42;;;;;;;;;;;;;;;9.55;100.00;100266.97;4993706;28;19946;-79
2023/12/25 11:30:08;;;;;;;;;;;;;;;9.61;100.00;100265.34;4991798;28;19925;-79
2023/12/25 11:32:36;;;;;;;;;;;;;;;9.79;100.00;100270.09;4977186;28;19929;-79
2023/12/25 11:35:01;;;;;;;;;;;;;;;9.73;100.00;100265.53;4974769;28;20330;-79
2023/12/25 11:37:28;;;;;;;;;;;;;;;9.68;100.00;100276.91;4974041;28;19949;-80
2023/12/25 11:39:54;;;;;;;;;;;;;;;9.68;100.00;100276.91;4974778;28;19918;-79
2023/12/25 11:42:19;;;;;;;;;;;;;;;9.76;100.00;100259.75;4974919;28;20449;-79
2023/12/25 11:44:45;;;;;;;;;;;;;;;9.80;100.00;100252.94;4974800;28;19922;-79
2023/12/25 11:47:11;;;;;;;;;;;;;;;9.84;100.00;100247.97;4975626;28;19926;-79
2023/12/25 11:49:38;;;;;;;;;;;;;;;9.86;100.00;100248.59;4975088;28;20037;-80
2023/12/25 11:52:03;;;;;;;;;;;;;;;9.76;100.00;100235.56;4972579;28;19926;-79
2023/12/25 11:54:32;;;;;;;;;;;;;;;9.64;100.00;100258.72;4974001;28;19972;-79
2023/12/25 11:57:03;;;;;;;;;;;;;;;9.58;100.00;100267.59;4974022;28;19914;-79
2023/12/25 11:59:29;;;;;;;;;;;;;;;9.57;100.00;100272.16;4972064;28;19984;-79
2023/12/25 12:01:54;;;;;;;;;;;;;;;9.56;100.00;100279.38;4980883;28;19949;-80
2023/12/25 12:04:19;;;;;;;;;;;;;;;9.63;100.00;100284.75;4993263;28;19984;-79
2023/12/25 12:06:45;;;;;;;;;;;;;;;9.59;100.00;100282.69;4993504;28;19918;-79
2023/12/25 12:09:10;;;;;;;;;;;;;;;9.52;100.00;100283.53;4992757;28;19921;-80
2023/12/25 12:11:35;;;;;;;;;;;;;;;9.45;100.00;100290.72;4993931;28;19929;-80
2023/12/25 12:14:02;;;;;;;;;;;;;;;9.48;100.00;100282.28;4993410;28;19917;-79
2023/12/25 12:16:27;;;;;;;;;;;;;;;9.45;100.00;100277.28;4987851;28;19914;-80
2023/12/25 12:18:53;;;;;;;;;;;;;;;9.47;100.00;100274.41;4973844;28;19938;-79
2023/12/25 12:21:18;;;;;;;;;;;;;;;9.62;100.00;100271.53;4973320;28;19918;-79
2023/12/25 12:23:43;;;;;;;;;;;;;;;9.76;100.00;100264.31;4972177;28;19976;-79
2023/12/25 12:26:17;;;;;;;;;;;;;;;9.66;100.00;100262.03;4992898;28;19937;-79
2023/12/25 12:28:43;;;;;;;;;;;;;;;9.64;100.00;100272.16;4993058;28;19917;-80
2023/12/25 12:31:08;;;;;;;;;;;;;;;9.68;100.00;100270.72;4993373;28;20013;-80
2023/12/25 12:33:33;;;;;;;;;;;;;;;9.73;100.00;100260.16;4992814;28;20056;-80
2023/12/25 12:35:59;;;;;;;;;;;;;;;9.83;100.00;100263.28;4993278;28;19921;-79
2023/12/25 12:38:25;;;;;;;;;;;;;;;9.89;100.00;100252.72;4992780;28;19918;-79
2023/12/25 12:40:50;;;;;;;;;;;;;;;9.86;100.00;100276.31;4994607;28;19921;-79
2023/12/25 12:43:18;;;;;;;;;;;;;;;9.80;100.00;100278.97;4995839;28;19921;-79
2023/12/25 12:45:43;;;;;;;;;;;;;;;9.70;100.00;100290.16;4997513;28;19967;-79
2023/12/25 12:48:09;;;;;;;;;;;;;;;9.63;100.00;100279.38;4996482;28;19943;-79
2023/12/25 12:50:34;;;;;;;;;;;;;;;9.63;100.00;100274.00;5002936;28;19925;-79
2023/12/25 12:53:00;;;;;;;;;;;;;;;9.55;100.00;100284.97;4995429;28;19922;-79
2023/12/25 12:55:25;;;;;;;;;;;;;;;9.52;100.00;100293.44;4982382;28;19961;-79
2023/12/25 12:57:50;;;;;;;;;;;;;;;9.61;100.00;100288.69;4978275;28;20385;-79
2023/12/25 13:00:16;;;;;;;;;;;;;;;9.63;100.00;100289.31;4978335;28;20371;-80
2023/12/25 13:02:42;;;;;;;;;;;;;;;9.59;100.00;100285.38;4980549;28;19918;-79
2023/12/25 13:05:08;;;;;;;;;;;;;;;9.52;100.00;100270.09;4980560;28;19933;-79
2023/12/25 13:07:33;;;;;;;;;;;;;;;9.50;100.00;100271.31;4978855;28;19922;-79
2023/12/25 13:09:58;;;;;;;;;;;;;;;9.50;100.00;100265.94;4980663;28;19922;-79